Time;durP1;ratioP1;P1;durP2;ratioP2;P2;SDS_P1;SDS_P2;PMS_P1;PMS_P2;Temp;Humidity;BMP_temperature;BMP_pressure;BME280_temperature;BME280_humidity;BME280_pressure;Samples;Min_cycle;Max_cycle;Signal;HPM_P1;HPM_P2
2021/09/06 00:01:39;;;;;;;5.93;5.32;;;22.60;67.30;;;;;;4994053;28;20042;-74
2021/09/06 00:04:05;;;;;;;5.68;5.07;;;22.60;67.40;;;;;;4991961;28;20402;-75
2021/09/06 00:06:31;;;;;;;5.82;5.22;;;22.60;67.20;;;;;;4990749;28;20042;-75
2021/09/06 00:08:57;;;;;;;6.38;5.03;;;22.60;67.50;;;;;;4991709;28;20054;-73
2021/09/06 00:11:22;;;;;;;6.05;5.43;;;22.50;67.80;;;;;;4992519;28;20077;-74
2021/09/06 00:13:51;;;;;;;5.80;5.22;;;22.50;68.00;;;;;;4993477;28;20033;-74
2021/09/06 00:16:17;;;;;;;5.88;5.28;;;22.60;68.20;;;;;;4991841;28;20533;-74
2021/09/06 00:18:43;;;;;;;7.20;5.43;;;22.50;67.80;;;;;;4991403;28;20027;-74
2021/09/06 00:21:09;;;;;;;7.35;5.30;;;22.50;68.30;;;;;;4990943;28;20062;-75
2021/09/06 00:23:35;;;;;;;5.50;5.00;;;22.40;67.90;;;;;;4994075;28;20439;-76
2021/09/06 00:26:02;;;;;;;7.18;5.97;;;22.40;67.80;;;;;;4990787;28;20549;-74
2021/09/06 00:28:28;;;;;;;6.22;5.55;;;22.40;68.20;;;;;;4993741;28;20019;-74
2021/09/06 00:30:53;;;;;;;7.07;5.82;;;22.40;68.10;;;;;;4986634;28;20105;-74
2021/09/06 00:33:19;;;;;;;7.75;6.20;;;22.40;68.90;;;;;;4977025;28;20030;-74
2021/09/06 00:35:46;;;;;;;7.43;6.07;;;22.30;68.80;;;;;;4991133;28;20034;-75
2021/09/06 00:38:12;;;;;;;6.97;6.05;;;22.30;69.20;;;;;;4992514;28;20019;-75
2021/09/06 00:40:38;;;;;;;7.97;6.10;;;22.30;68.90;;;;;;4993455;28;20029;-74
2021/09/06 00:43:04;;;;;;;7.07;6.03;;;22.30;68.80;;;;;;4991477;28;20038;-74
2021/09/06 00:45:30;;;;;;;7.72;6.35;;;22.30;69.00;;;;;;4992312;28;20032;-75
2021/09/06 00:47:55;;;;;;;7.22;5.93;;;22.30;69.10;;;;;;4990923;28;20034;-74
2021/09/06 00:50:21;;;;;;;8.45;6.22;;;22.30;69.00;;;;;;4991312;28;20026;-75
2021/09/06 00:52:48;;;;;;;6.45;5.70;;;22.30;69.10;;;;;;4992831;28;20041;-75
2021/09/06 00:55:15;;;;;;;6.75;5.75;;;22.30;69.20;;;;;;4991420;28;20041;-74
2021/09/06 00:57:41;;;;;;;6.53;5.38;;;22.30;69.20;;;;;;4973771;28;20034;-75
2021/09/06 01:00:09;;;;;;;9.60;6.32;;;22.30;69.20;;;;;;4991394;28;20030;-75
2021/09/06 01:02:35;;;;;;;9.00;6.20;;;22.30;69.40;;;;;;4990942;28;20034;-74
2021/09/06 01:05:01;;;;;;;7.88;6.15;;;22.30;69.90;;;;;;4992196;28;20037;-75
2021/09/06 01:07:27;;;;;;;7.82;6.57;;;22.30;69.70;;;;;;4991564;28;20077;-74
2021/09/06 01:09:53;;;;;;;7.13;5.47;;;22.30;69.40;;;;;;4991349;28;20027;-74
2021/09/06 01:12:19;;;;;;;7.00;5.95;;;22.30;69.70;;;;;;4974484;28;20064;-74
2021/09/06 01:14:45;;;;;;;7.10;6.22;;;22.30;69.40;;;;;;4990005;28;20066;-75
2021/09/06 01:17:11;;;;;;;8.52;6.55;;;22.20;69.80;;;;;;4991269;28;20026;-74
2021/09/06 01:19:37;;;;;;;7.57;5.90;;;22.20;69.70;;;;;;4993045;28;20069;-74
2021/09/06 01:22:03;;;;;;;7.75;6.03;;;22.30;69.70;;;;;;4991465;28;20046;-74
2021/09/06 01:24:29;;;;;;;6.32;5.68;;;22.30;69.70;;;;;;4989773;28;20396;-74
2021/09/06 01:26:55;;;;;;;7.38;6.60;;;22.30;69.40;;;;;;4991506;28;20514;-75
2021/09/06 01:29:20;;;;;;;6.72;6.05;;;22.30;69.70;;;;;;4991532;28;20022;-74
2021/09/06 01:31:46;;;;;;;6.82;6.07;;;22.20;69.50;;;;;;4992335;28;20061;-74
2021/09/06 01:34:12;;;;;;;6.53;5.78;;;22.10;69.70;;;;;;4991018;28;20026;-74
2021/09/06 01:36:38;;;;;;;7.20;6.35;;;22.10;70.10;;;;;;4989502;28;20495;-75
2021/09/06 01:39:05;;;;;;;9.55;6.35;;;22.00;70.20;;;;;;4989648;28;20032;-74
2021/09/06 01:41:31;;;;;;;6.85;6.10;;;22.00;70.00;;;;;;4989898;28;20491;-74
2021/09/06 01:43:57;;;;;;;7.18;6.10;;;21.90;70.50;;;;;;4990930;28;20569;-74
2021/09/06 01:46:31;;;;;;;7.60;6.20;;;21.90;70.70;;;;;;4975550;28;20034;-74
2021/09/06 01:48:57;;;;;;;8.00;6.20;;;21.90;70.60;;;;;;4989847;28;20045;-73
2021/09/06 01:51:27;;;;;;;10.82;7.10;;;21.80;70.80;;;;;;4988942;28;20121;-73
2021/09/06 01:53:54;;;;;;;7.57;6.22;;;21.80;70.60;;;;;;4990819;28;20022;-74
2021/09/06 01:56:20;;;;;;;8.13;6.60;;;21.80;70.70;;;;;;4990989;28;20380;-74
2021/09/06 01:58:48;;;;;;;8.27;6.45;;;21.70;71.00;;;;;;4992061;28;20018;-73
2021/09/06 02:01:14;;;;;;;6.85;6.15;;;21.80;71.10;;;;;;4988899;28;20049;-73
2021/09/06 02:03:40;;;;;;;7.63;6.28;;;21.70;70.90;;;;;;4990956;28;20026;-74
2021/09/06 02:06:06;;;;;;;8.80;7.35;;;21.70;70.80;;;;;;4990041;28;20022;-73
2021/09/06 02:08:32;;;;;;;9.45;7.22;;;21.70;71.00;;;;;;4989535;28;20026;-73
2021/09/06 02:10:57;;;;;;;8.45;7.13;;;21.70;70.90;;;;;;4972648;28;20019;-74
2021/09/06 02:13:23;;;;;;;9.25;7.05;;;21.60;71.10;;;;;;4991326;28;20503;-74
2021/09/06 02:15:49;;;;;;;8.32;6.57;;;21.60;71.00;;;;;;4989383;28;20072;-74
2021/09/06 02:18:15;;;;;;;8.55;6.82;;;21.60;71.80;;;;;;4991076;28;20069;-74
2021/09/06 02:20:41;;;;;;;9.00;7.03;;;21.70;72.00;;;;;;4988770;28;20022;-74
2021/09/06 02:23:07;;;;;;;9.40;7.28;;;21.70;71.40;;;;;;4990630;28;20042;-74
2021/09/06 02:25:32;;;;;;;8.27;6.68;;;21.70;71.40;;;;;;4974524;28;20046;-74
2021/09/06 02:27:58;;;;;;;9.13;7.50;;;21.70;71.40;;;;;;4990093;28;20483;-74
2021/09/06 02:30:24;;;;;;;8.52;7.20;;;21.60;71.30;;;;;;4989351;28;20487;-74
2021/09/06 02:32:50;;;;;;;9.15;7.38;;;21.50;71.30;;;;;;4989343;28;20034;-74
2021/09/06 02:35:16;;;;;;;8.70;7.07;;;21.40;71.70;;;;;;4989976;28;20045;-74
2021/09/06 02:37:42;;;;;;;9.88;7.13;;;21.40;71.90;;;;;;4991483;28;20033;-73
2021/09/06 02:40:09;;;;;;;8.60;7.30;;;21.40;72.20;;;;;;4973145;28;20473;-73
2021/09/06 02:42:34;;;;;;;10.82;7.15;;;21.40;72.00;;;;;;4989969;28;20048;-74
2021/09/06 02:45:00;;;;;;;8.73;7.43;;;21.40;72.90;;;;;;4985613;28;20101;-74
2021/09/06 02:47:28;;;;;;;9.02;7.45;;;21.50;72.30;;;;;;4990377;28;20043;-73
2021/09/06 02:49:54;;;;;;;8.35;7.07;;;21.40;71.80;;;;;;4989846;28;20082;-73
2021/09/06 02:52:19;;;;;;;8.65;7.18;;;21.40;71.90;;;;;;4973530;28;20147;-74
2021/09/06 02:54:45;;;;;;;8.25;6.95;;;21.40;71.70;;;;;;4990023;28;20057;-74
2021/09/06 02:57:11;;;;;;;8.80;7.18;;;21.30;72.10;;;;;;4988598;28;20069;-74
2021/09/06 02:59:37;;;;;;;9.48;7.40;;;21.30;72.10;;;;;;4988677;28;20105;-74
2021/09/06 03:02:03;;;;;;;9.98;7.35;;;21.30;72.10;;;;;;4990283;28;20058;-74
2021/09/06 03:04:29;;;;;;;9.68;8.07;;;21.30;72.30;;;;;;4987254;28;20061;-73
2021/09/06 03:06:54;;;;;;;8.52;7.03;;;21.30;72.50;;;;;;4991836;28;20026;-74
2021/09/06 03:09:20;;;;;;;9.82;7.30;;;21.30;72.60;;;;;;4991660;28;20046;-75
2021/09/06 03:11:46;;;;;;;9.98;7.80;;;21.30;72.40;;;;;;4991243;28;20034;-74
2021/09/06 03:14:11;;;;;;;9.95;7.32;;;21.30;72.00;;;;;;4992588;28;20062;-74
2021/09/06 03:16:37;;;;;;;9.98;7.78;;;21.20;72.20;;;;;;4995580;28;20105;-75
2021/09/06 03:19:03;;;;;;;9.07;7.47;;;21.30;72.70;;;;;;4993690;28;20038;-74
2021/09/06 03:21:28;;;;;;;9.55;7.35;;;21.30;72.20;;;;;;4993849;28;20046;-74
2021/09/06 03:23:54;;;;;;;8.88;7.35;;;21.20;73.30;;;;;;4991754;28;20019;-74
2021/09/06 03:26:20;;;;;;;8.25;7.30;;;21.20;72.40;;;;;;4975591;28;20027;-74
2021/09/06 03:28:46;;;;;;;9.43;7.40;;;21.20;73.40;;;;;;4994730;28;20023;-74
2021/09/06 03:31:12;;;;;;;10.35;7.82;;;21.10;72.50;;;;;;4993185;28;20129;-74
2021/09/06 03:33:37;;;;;;;8.60;7.13;;;21.10;72.70;;;;;;4991855;28;20165;-74
2021/09/06 03:36:04;;;;;;;10.60;7.93;;;21.10;72.80;;;;;;4992138;28;20037;-74
2021/09/06 03:38:30;;;;;;;10.30;8.18;;;21.20;72.80;;;;;;4974578;28;20030;-74
2021/09/06 03:40:55;;;;;;;10.77;7.95;;;21.10;72.70;;;;;;4975189;28;20057;-74
2021/09/06 03:43:21;;;;;;;9.68;8.00;;;21.00;72.40;;;;;;4995267;28;20037;-74
2021/09/06 03:45:47;;;;;;;11.15;8.52;;;21.00;72.70;;;;;;4991759;28;20035;-74
2021/09/06 03:48:12;;;;;;;10.75;8.68;;;21.00;72.60;;;;;;4991476;28;20030;-74
2021/09/06 03:50:38;;;;;;;10.43;8.73;;;21.00;74.00;;;;;;4991958;28;20460;-74
2021/09/06 03:53:04;;;;;;;10.35;8.45;;;20.90;72.90;;;;;;4991755;28;20027;-73
2021/09/06 03:55:29;;;;;;;12.18;8.85;;;20.90;73.00;;;;;;4995249;28;20050;-74
2021/09/06 03:57:55;;;;;;;11.05;8.45;;;20.90;73.00;;;;;;4990912;28;20101;-74
2021/09/06 04:00:21;;;;;;;11.05;8.68;;;20.90;72.80;;;;;;4991602;28;20041;-74
2021/09/06 04:02:47;;;;;;;12.30;9.40;;;20.90;72.80;;;;;;4990124;28;20034;-74
2021/09/06 04:05:12;;;;;;;12.80;9.88;;;20.90;73.00;;;;;;4996773;28;20081;-75
2021/09/06 04:07:38;;;;;;;12.10;9.30;;;20.90;73.50;;;;;;4993696;28;20026;-74
2021/09/06 04:10:04;;;;;;;11.55;8.98;;;20.80;73.40;;;;;;4993477;28;20038;-74
2021/09/06 04:12:30;;;;;;;12.70;9.68;;;20.90;73.30;;;;;;4973331;28;20036;-74
2021/09/06 04:14:56;;;;;;;11.77;8.90;;;20.80;73.40;;;;;;4991948;28;20109;-73
2021/09/06 04:17:21;;;;;;;14.10;9.65;;;20.80;73.50;;;;;;4990778;28;20108;-74
2021/09/06 04:19:47;;;;;;;10.63;8.43;;;20.70;74.00;;;;;;4993433;28;20430;-73
2021/09/06 04:22:12;;;;;;;12.65;9.38;;;20.70;73.80;;;;;;4992242;28;20042;-74
2021/09/06 04:24:38;;;;;;;11.88;8.30;;;20.70;74.00;;;;;;4990897;28;20023;-74
2021/09/06 04:27:04;;;;;;;11.40;8.40;;;20.70;74.20;;;;;;4991362;28;20069;-74
2021/09/06 04:29:29;;;;;;;11.07;8.45;;;20.70;73.90;;;;;;4991296;28;20127;-74
2021/09/06 04:31:55;;;;;;;10.75;8.32;;;20.70;74.20;;;;;;4992143;28;20050;-73
2021/09/06 04:34:21;;;;;;;11.18;8.88;;;20.80;74.00;;;;;;4993628;28;20034;-73
2021/09/06 04:36:47;;;;;;;12.13;8.40;;;20.70;73.70;;;;;;4990853;28;20046;-73
2021/09/06 04:39:12;;;;;;;10.93;8.75;;;20.70;74.10;;;;;;4992397;28;20092;-73
2021/09/06 04:41:38;;;;;;;11.32;8.20;;;20.70;73.70;;;;;;4992299;28;20042;-73
2021/09/06 04:44:04;;;;;;;11.18;8.70;;;20.70;74.40;;;;;;4992752;28;20031;-73
2021/09/06 04:46:29;;;;;;;10.02;8.43;;;20.60;73.80;;;;;;4972437;28;20146;-73
2021/09/06 04:48:55;;;;;;;9.88;7.93;;;20.70;73.80;;;;;;4993504;28;20030;-73
2021/09/06 04:51:21;;;;;;;10.52;8.15;;;20.70;74.10;;;;;;4992639;28;20129;-73
2021/09/06 04:53:46;;;;;;;11.15;8.68;;;20.70;74.00;;;;;;4992362;28;20574;-74
2021/09/06 04:56:13;;;;;;;10.75;8.48;;;20.80;73.80;;;;;;4992502;28;20399;-73
2021/09/06 04:58:39;;;;;;;11.82;8.68;;;20.80;73.60;;;;;;4993289;28;20029;-73
2021/09/06 05:01:05;;;;;;;10.75;8.00;;;20.70;73.30;;;;;;4992478;28;20022;-73
2021/09/06 05:03:31;;;;;;;11.07;8.32;;;20.70;73.40;;;;;;4990431;28;20027;-73
2021/09/06 05:05:58;;;;;;;10.70;8.65;;;20.60;73.50;;;;;;4990802;28;20023;-73
2021/09/06 05:08:25;;;;;;;10.40;8.27;;;20.60;73.80;;;;;;4991580;28;20034;-74
2021/09/06 05:10:51;;;;;;;10.68;8.55;;;20.60;73.60;;;;;;4992812;28;20035;-74
2021/09/06 05:13:16;;;;;;;11.23;8.57;;;20.50;73.90;;;;;;4993746;28;20045;-74
2021/09/06 05:15:42;;;;;;;11.00;8.38;;;20.50;73.90;;;;;;4990300;28;20113;-74
2021/09/06 05:18:08;;;;;;;9.25;7.65;;;20.40;73.90;;;;;;4991674;28;20081;-73
2021/09/06 05:20:33;;;;;;;10.82;8.52;;;20.40;74.00;;;;;;4991540;28;20399;-73
2021/09/06 05:22:59;;;;;;;9.43;8.35;;;20.40;74.30;;;;;;4991778;28;20030;-73
2021/09/06 05:25:25;;;;;;;9.32;7.70;;;20.30;74.40;;;;;;4993706;28;20030;-73
2021/09/06 05:27:50;;;;;;;9.43;7.55;;;20.30;74.20;;;;;;4990087;28;20092;-73
2021/09/06 05:30:16;;;;;;;9.27;7.75;;;20.30;74.40;;;;;;4995287;28;20026;-74
2021/09/06 05:32:41;;;;;;;9.98;7.90;;;20.30;74.30;;;;;;4990281;28;20522;-74
2021/09/06 05:35:08;;;;;;;9.32;7.70;;;20.30;74.30;;;;;;4989920;28;20402;-73
2021/09/06 05:37:33;;;;;;;9.90;8.48;;;20.20;74.20;;;;;;4975471;28;20026;-73
2021/09/06 05:39:59;;;;;;;11.18;8.30;;;20.10;74.30;;;;;;4990368;28;20390;-74
2021/09/06 05:42:24;;;;;;;9.70;7.93;;;20.20;74.80;;;;;;4989695;28;20039;-74
2021/09/06 05:44:50;;;;;;;11.82;8.07;;;20.20;74.80;;;;;;4989796;28;20129;-74
2021/09/06 05:47:19;;;;;;;8.35;7.32;;;20.20;74.40;;;;;;4989654;28;20056;-74
2021/09/06 05:49:45;;;;;;;9.55;7.25;;;20.10;74.30;;;;;;4991930;28;20022;-74
2021/09/06 05:52:11;;;;;;;8.00;7.07;;;20.10;75.50;;;;;;4991051;28;20368;-74
2021/09/06 05:54:37;;;;;;;10.38;7.68;;;20.10;74.70;;;;;;4989323;28;20491;-74
2021/09/06 05:57:03;;;;;;;8.15;6.72;;;20.10;74.90;;;;;;4989536;28;20026;-74
2021/09/06 05:59:29;;;;;;;7.60;6.53;;;20.20;75.00;;;;;;4988893;28;20022;-74
2021/09/06 06:01:54;;;;;;;9.43;6.70;;;20.30;75.10;;;;;;4990974;28;20427;-73
2021/09/06 06:04:20;;;;;;;8.63;7.47;;;20.30;74.90;;;;;;4992597;28;20026;-73
2021/09/06 06:06:45;;;;;;;8.20;6.68;;;20.40;74.70;;;;;;4988543;28;20125;-73
2021/09/06 06:09:12;;;;;;;7.38;6.32;;;20.50;74.90;;;;;;4988834;28;20018;-74
2021/09/06 06:11:38;;;;;;;7.32;6.38;;;20.50;74.40;;;;;;4992406;28;20149;-74
2021/09/06 06:14:05;;;;;;;8.68;7.35;;;20.60;74.30;;;;;;4988600;28;20483;-73
2021/09/06 06:16:31;;;;;;;6.60;5.90;;;20.70;74.20;;;;;;4974144;28;20034;-72
2021/09/06 06:18:57;;;;;;;7.47;6.40;;;20.90;74.40;;;;;;4989970;28;20030;-72
2021/09/06 06:21:23;;;;;;;7.50;6.07;;;20.90;73.60;;;;;;4989160;28;20392;-73
2021/09/06 06:23:48;;;;;;;8.10;6.25;;;21.00;73.60;;;;;;4989029;28;20375;-73
2021/09/06 06:26:15;;;;;;;7.53;5.82;;;21.00;73.50;;;;;;4989578;28;20467;-73
2021/09/06 06:28:41;;;;;;;7.10;5.88;;;21.20;73.40;;;;;;4991380;28;20023;-73
2021/09/06 06:31:07;;;;;;;7.25;5.90;;;21.30;73.00;;;;;;4970732;28;20058;-73
2021/09/06 06:33:32;;;;;;;6.70;6.00;;;21.40;72.90;;;;;;4970104;28;20035;-73
2021/09/06 06:35:59;;;;;;;7.28;6.45;;;21.50;72.60;;;;;;4970808;28;20033;-73
2021/09/06 06:38:25;;;;;;;7.70;5.90;;;21.50;72.10;;;;;;4971511;28;20031;-72
2021/09/06 06:40:51;;;;;;;6.97;6.22;;;21.60;72.20;;;;;;4971383;28;20081;-73
2021/09/06 06:43:16;;;;;;;6.20;5.53;;;21.70;72.00;;;;;;4972246;28;20388;-73
2021/09/06 06:45:42;;;;;;;6.82;5.82;;;21.80;72.10;;;;;;4970958;28;20518;-72
2021/09/06 06:48:08;;;;;;;6.03;5.43;;;21.90;71.70;;;;;;4970243;28;20044;-73
2021/09/06 06:50:33;;;;;;;6.45;5.70;;;22.00;71.70;;;;;;4975257;28;20106;-73
2021/09/06 06:52:59;;;;;;;6.57;5.70;;;22.20;71.50;;;;;;4973871;28;20023;-73
2021/09/06 06:55:25;;;;;;;6.60;5.57;;;22.40;71.20;;;;;;4975347;28;20035;-72
2021/09/06 06:57:50;;;;;;;6.47;5.13;;;22.50;71.60;;;;;;4967485;28;20454;-73
2021/09/06 07:00:16;;;;;;;5.88;5.18;;;22.60;70.30;;;;;;4970178;28;20031;-73
2021/09/06 07:02:42;;;;;;;7.93;5.63;;;22.70;70.10;;;;;;4968826;28;20043;-73
2021/09/06 07:05:09;;;;;;;6.80;5.57;;;22.80;69.60;;;;;;4967948;28;20019;-72
2021/09/06 07:07:34;;;;;;;6.60;5.50;;;22.90;69.50;;;;;;4972512;28;20034;-73
2021/09/06 07:10:00;;;;;;;6.05;5.13;;;23.00;69.40;;;;;;4970424;28;20031;-73
2021/09/06 07:12:26;;;;;;;6.30;5.60;;;23.20;69.20;;;;;;4968114;28;20050;-72
2021/09/06 07:14:51;;;;;;;6.47;5.03;;;23.20;69.00;;;;;;4968673;28;20026;-73
2021/09/06 07:17:17;;;;;;;6.63;5.93;;;23.30;68.80;;;;;;4966381;28;20109;-73
2021/09/06 07:19:43;;;;;;;5.88;5.25;;;23.40;68.30;;;;;;4968142;28;20050;-73
2021/09/06 07:22:09;;;;;;;6.38;5.30;;;23.50;68.20;;;;;;4968894;28;20038;-73
2021/09/06 07:24:34;;;;;;;5.97;5.30;;;23.70;68.30;;;;;;4965980;28;20028;-75
2021/09/06 07:27:00;;;;;;;5.68;4.75;;;23.80;67.90;;;;;;4960077;28;20035;-75
2021/09/06 07:29:26;;;;;;;5.45;4.90;;;23.90;67.50;;;;;;4964589;28;20556;-75
2021/09/06 07:31:51;;;;;;;5.40;4.90;;;24.10;67.40;;;;;;4980319;28;20384;-74
2021/09/06 07:34:17;;;;;;;5.63;4.90;;;24.20;67.80;;;;;;4969885;28;20049;-75
2021/09/06 07:36:43;;;;;;;5.60;4.88;;;24.40;67.20;;;;;;4984868;28;20027;-75
2021/09/06 07:39:10;;;;;;;5.43;4.90;;;24.60;66.90;;;;;;4986524;28;20052;-75
2021/09/06 07:41:36;;;;;;;5.88;4.68;;;24.70;66.60;;;;;;4989069;28;20121;-75
2021/09/06 07:44:02;;;;;;;5.60;4.95;;;24.80;66.00;;;;;;4968502;28;20109;-74
2021/09/06 07:46:28;;;;;;;6.22;5.28;;;25.00;66.00;;;;;;4988921;28;20117;-74
2021/09/06 07:48:54;;;;;;;5.65;5.00;;;25.10;65.30;;;;;;4989342;28;20057;-75
2021/09/06 07:51:19;;;;;;;5.95;5.38;;;25.20;64.70;;;;;;4972156;28;20108;-75
2021/09/06 07:53:45;;;;;;;5.88;5.28;;;25.30;64.80;;;;;;4986363;28;20061;-74
2021/09/06 07:56:11;;;;;;;5.30;4.68;;;25.50;65.20;;;;;;4987211;28;20109;-73
2021/09/06 07:58:36;;;;;;;5.50;4.90;;;25.60;64.50;;;;;;4988335;28;20393;-74
2021/09/06 08:01:02;;;;;;;4.95;4.43;;;25.80;64.60;;;;;;4989306;28;20034;-74
2021/09/06 08:03:27;;;;;;;4.88;4.30;;;26.00;64.30;;;;;;4991793;28;20039;-75
2021/09/06 08:05:53;;;;;;;6.63;4.80;;;26.20;64.00;;;;;;4972963;28;20110;-74
2021/09/06 08:08:19;;;;;;;5.38;4.85;;;26.30;63.40;;;;;;4985459;28;20029;-75
2021/09/06 08:10:45;;;;;;;5.32;4.70;;;26.40;62.70;;;;;;4987266;28;20029;-75
2021/09/06 08:13:11;;;;;;;6.53;4.65;;;26.50;62.30;;;;;;4986867;28;20023;-76
2021/09/06 08:15:36;;;;;;;6.60;4.68;;;26.70;62.50;;;;;;4987841;28;20074;-75
2021/09/06 08:18:04;;;;;;;5.45;4.85;;;27.00;62.70;;;;;;4987056;28;20026;-75
2021/09/06 08:20:29;;;;;;;5.78;4.43;;;27.20;61.80;;;;;;4987455;28;20018;-76
2021/09/06 08:22:55;;;;;;;5.75;4.10;;;27.30;61.50;;;;;;4982748;28;20104;-75
2021/09/06 08:25:21;;;;;;;4.82;4.25;;;27.40;61.10;;;;;;4987839;28;20018;-75
2021/09/06 08:27:47;;;;;;;5.57;4.20;;;27.70;60.40;;;;;;4985937;28;20053;-75
2021/09/06 08:30:14;;;;;;;5.22;4.15;;;27.80;60.50;;;;;;4984072;28;20438;-75
2021/09/06 08:32:41;;;;;;;4.90;4.20;;;27.90;58.70;;;;;;4969169;28;20054;-76
2021/09/06 08:35:07;;;;;;;4.75;3.90;;;27.90;58.30;;;;;;4987456;28;20030;-76
2021/09/06 08:37:33;;;;;;;4.90;4.00;;;27.80;58.40;;;;;;4987404;28;20038;-74
2021/09/06 08:39:59;;;;;;;4.97;3.88;;;28.00;59.30;;;;;;4986094;28;20027;-75
2021/09/06 08:42:24;;;;;;;5.15;3.60;;;28.30;59.50;;;;;;4987481;28;20085;-74
2021/09/06 08:44:50;;;;;;;4.75;3.72;;;28.60;58.80;;;;;;4986795;28;20027;-74
2021/09/06 08:47:16;;;;;;;4.15;3.75;;;28.60;57.70;;;;;;4984857;28;20038;-74
2021/09/06 08:49:45;;;;;;;4.63;4.03;;;28.80;56.50;;;;;;4986331;28;20026;-75
2021/09/06 08:52:14;;;;;;;5.53;3.92;;;28.80;56.20;;;;;;4985157;28;20030;-74
2021/09/06 08:54:41;;;;;;;4.25;3.55;;;28.70;55.30;;;;;;4985335;28;20031;-75
2021/09/06 08:57:07;;;;;;;4.50;3.35;;;28.60;55.60;;;;;;4993284;28;20090;-75
2021/09/06 08:59:33;;;;;;;4.38;3.78;;;28.80;56.50;;;;;;4987966;28;20034;-75
2021/09/06 09:01:58;;;;;;;4.10;3.70;;;28.90;55.30;;;;;;4989527;28;20042;-75
2021/09/06 09:04:26;;;;;;;4.57;3.47;;;28.90;55.50;;;;;;4988430;28;20117;-73
2021/09/06 09:06:59;;;;;;;4.43;3.70;;;29.10;56.20;;;;;;4986274;28;20168;-74
2021/09/06 09:09:35;;;;;;;4.63;3.70;;;29.40;56.70;;;;;;4986344;28;20045;-74
2021/09/06 09:12:04;;;;;;;3.78;3.47;;;29.50;54.50;;;;;;4986739;28;20030;-73
2021/09/06 09:14:31;;;;;;;4.85;3.80;;;29.60;53.50;;;;;;4987543;28;20034;-73
2021/09/06 09:16:58;;;;;;;5.45;3.47;;;29.60;54.10;;;;;;4990303;28;20491;-74
2021/09/06 09:19:24;;;;;;;4.22;3.53;;;29.90;54.10;;;;;;4991938;28;20395;-74
2021/09/06 09:21:57;;;;;;;4.05;3.47;;;30.20;53.30;;;;;;4988280;28;20045;-74
2021/09/06 09:24:23;;;;;;;4.47;3.92;;;30.40;54.60;;;;;;4990438;28;20487;-74
2021/09/06 09:27:00;;;;;;;4.82;3.63;;;30.40;51.10;;;;;;4988846;28;20030;-75
2021/09/06 09:29:27;;;;;;;5.63;4.10;;;30.30;52.10;;;;;;4974263;28;20060;-75
2021/09/06 09:31:55;;;;;;;3.88;3.40;;;30.30;51.70;;;;;;4990165;28;20507;-75
2021/09/06 09:34:21;;;;;;;4.72;3.92;;;30.30;52.10;;;;;;4992802;28;20050;-73
2021/09/06 09:36:48;;;;;;;4.85;3.40;;;30.40;51.90;;;;;;4989210;28;20034;-74
2021/09/06 09:39:17;;;;;;;4.30;3.63;;;30.60;52.40;;;;;;4989354;28;20494;-74
2021/09/06 09:41:45;;;;;;;4.43;3.42;;;30.90;51.80;;;;;;4989387;28;20037;-73
2021/09/06 09:44:20;;;;;;;3.65;3.33;;;31.10;51.70;;;;;;4972407;28;20049;-75
2021/09/06 09:47:00;;;;;;;3.70;3.30;;;31.50;51.20;;;;;;4992450;28;20121;-78
2021/09/06 09:49:28;;;;;;;3.63;3.30;;;31.70;51.30;;;;;;4990282;28;20092;-78
2021/09/06 09:51:54;;;;;;;4.85;3.47;;;32.00;49.70;;;;;;4990754;28;20105;-78
2021/09/06 09:54:20;;;;;;;3.35;3.05;;;31.90;47.80;;;;;;4990351;28;20042;-78
2021/09/06 09:56:47;;;;;;;3.63;3.13;;;32.00;49.40;;;;;;4989934;28;20484;-75
2021/09/06 09:59:14;;;;;;;3.65;3.35;;;32.30;49.30;;;;;;4988956;28;20077;-76
2021/09/06 10:02:07;;;;;;;3.88;3.42;;;32.60;48.60;;;;;;4991920;28;20435;-76
2021/09/06 10:04:34;;;;;;;3.50;3.00;;;32.70;48.60;;;;;;4977469;28;20061;-76
2021/09/06 10:07:01;;;;;;;3.50;2.97;;;32.90;48.30;;;;;;4988204;28;20026;-75
2021/09/06 10:09:28;;;;;;;3.13;2.83;;;33.10;47.50;;;;;;4989091;28;20061;-75
2021/09/06 10:12:04;;;;;;;3.55;3.00;;;33.30;46.60;;;;;;4993029;28;20026;-76
2021/09/06 10:14:31;;;;;;;4.72;3.28;;;33.40;47.80;;;;;;4989339;28;20030;-75
2021/09/06 10:17:08;;;;;;;2.95;2.55;;;33.60;45.80;;;;;;4990216;28;20053;-75
2021/09/06 10:19:40;;;;;;;4.70;2.83;;;33.80;47.40;;;;;;4988631;28;20065;-77
2021/09/06 10:22:06;;;;;;;3.65;2.20;;;34.00;45.70;;;;;;4989451;28;20046;-76
2021/09/06 10:24:32;;;;;;;2.30;2.10;;;33.80;42.10;;;;;;4988855;28;20111;-75
2021/09/06 10:27:06;;;;;;;2.90;2.40;;;33.60;42.40;;;;;;4989053;28;20040;-74
2021/09/06 10:29:33;;;;;;;3.03;2.30;;;33.60;43.30;;;;;;4988812;28;20041;-74
2021/09/06 10:32:03;;;;;;;2.28;2.03;;;33.70;41.90;;;;;;4965305;28;20423;-74
2021/09/06 10:34:29;;;;;;;4.70;2.15;;;33.70;43.60;;;;;;4985811;28;20073;-75
2021/09/06 10:37:00;;;;;;;3.40;2.25;;;34.20;43.30;;;;;;4986745;28;20038;-75
2021/09/06 10:39:27;;;;;;;2.30;2.03;;;34.30;42.50;;;;;;4987397;28;20030;-75
2021/09/06 10:41:53;;;;;;;4.07;2.30;;;34.60;39.70;;;;;;4983477;28;20042;-75
2021/09/06 10:44:20;;;;;;;4.20;2.53;;;34.50;39.40;;;;;;4985674;28;20763;-75
2021/09/06 10:46:54;;;;;;;7.13;2.30;;;34.10;39.40;;;;;;4986036;28;20025;-77
2021/09/06 10:49:24;;;;;;;1.90;1.77;;;34.30;42.00;;;;;;4983998;28;20030;-74
2021/09/06 10:51:50;;;;;;;3.58;2.30;;;34.80;41.50;;;;;;4986587;28;20022;-75
2021/09/06 10:54:15;;;;;;;3.33;1.83;;;34.90;38.80;;;;;;4985946;28;20508;-76
2021/09/06 10:56:41;;;;;;;2.95;1.80;;;34.60;37.70;;;;;;4988663;28;20522;-75
2021/09/06 10:59:07;;;;;;;3.08;2.00;;;34.20;38.70;;;;;;4983863;28;20475;-75
2021/09/06 11:01:33;;;;;;;1.70;1.60;;;34.40;38.70;;;;;;4985227;28;20027;-76
2021/09/06 11:03:58;;;;;;;2.80;1.90;;;34.30;40.10;;;;;;4988333;28;20113;-75
2021/09/06 11:06:28;;;;;;;2.38;1.80;;;34.80;37.60;;;;;;4989160;28;20126;-75
2021/09/06 11:08:54;;;;;;;2.35;1.70;;;34.70;37.10;;;;;;4988616;28;20018;-75
2021/09/06 11:11:21;;;;;;;2.58;1.80;;;34.80;37.80;;;;;;4981586;28;20023;-75
2021/09/06 11:13:48;;;;;;;3.15;2.08;;;34.80;39.00;;;;;;4973777;28;20022;-76
2021/09/06 11:16:16;;;;;;;3.92;1.75;;;35.10;37.80;;;;;;4989707;28;20030;-77
2021/09/06 11:18:47;;;;;;;2.00;1.75;;;35.20;38.50;;;;;;4988353;28;20503;-76
2021/09/06 11:21:13;;;;;;;2.50;1.65;;;35.30;38.30;;;;;;4987895;28;20507;-78
2021/09/06 11:23:41;;;;;;;1.65;1.55;;;35.40;35.50;;;;;;4988827;28;20046;-77
2021/09/06 11:26:09;;;;;;;3.90;1.60;;;35.00;36.40;;;;;;4989120;28;20527;-79
2021/09/06 11:28:43;;;;;;;4.15;1.70;;;35.20;37.10;;;;;;4991764;28;20026;-77
2021/09/06 11:31:08;;;;;;;1.75;1.65;;;35.20;35.40;;;;;;4990241;28;20042;-74
2021/09/06 11:33:34;;;;;;;2.17;1.58;;;35.60;36.80;;;;;;4990708;28;20388;-78
2021/09/06 11:36:00;;;;;;;2.88;1.70;;;36.10;37.10;;;;;;4989009;28;20486;-77
2021/09/06 11:38:25;;;;;;;1.98;1.60;;;36.20;36.10;;;;;;4983901;28;20045;-77
2021/09/06 11:40:56;;;;;;;1.42;1.27;;;35.90;33.40;;;;;;4984479;28;20026;-78
2021/09/06 11:43:24;;;;;;;1.58;1.30;;;35.30;33.70;;;;;;4991206;28;20061;-75
2021/09/06 11:46:01;;;;;;;1.63;1.20;;;35.60;34.10;;;;;;4976722;28;20027;-75
2021/09/06 11:48:27;;;;;;;1.33;1.23;;;35.30;34.50;;;;;;4986546;28;20034;-78
2021/09/06 11:50:53;;;;;;;1.20;1.10;;;35.10;32.90;;;;;;4991164;28;20139;-75
2021/09/06 11:53:19;;;;;;;1.30;1.20;;;34.70;33.30;;;;;;4991764;28;20436;-76
2021/09/06 11:56:11;;;;;;;1.58;1.30;;;34.80;34.60;;;;;;4994066;28;20058;-75
2021/09/06 11:58:43;;;;;;;1.40;1.17;;;35.30;33.60;;;;;;4991684;28;20431;-76
2021/09/06 12:01:09;;;;;;;1.20;1.10;;;35.40;33.50;;;;;;4993847;28;20529;-78
2021/09/06 12:03:35;;;;;;;2.60;1.23;;;35.40;31.90;;;;;;4976727;28;20062;-78
2021/09/06 12:06:07;;;;;;;1.33;1.20;;;35.30;31.90;;;;;;4991854;28;20053;-77
2021/09/06 12:08:33;;;;;;;1.90;1.42;;;35.30;33.10;;;;;;4992028;28;20019;-78
2021/09/06 12:11:11;;;;;;;1.70;1.20;;;35.20;31.60;;;;;;4993347;28;20489;-78
2021/09/06 12:13:38;;;;;;;1.40;1.30;;;35.00;33.10;;;;;;4993839;28;20110;-78
2021/09/06 12:16:06;;;;;;;2.03;1.30;;;35.30;32.70;;;;;;4992238;28;20061;-77
2021/09/06 12:18:38;;;;;;;1.33;1.10;;;35.10;32.40;;;;;;4991580;28;20094;-78
2021/09/06 12:21:07;;;;;;;1.50;1.08;;;35.40;31.20;;;;;;4989002;28;20491;-78
2021/09/06 12:23:36;;;;;;;2.45;1.10;;;35.60;30.60;;;;;;4991774;28;20065;-78
2021/09/06 12:26:02;;;;;;;1.60;1.27;;;36.00;30.10;;;;;;4987366;28;20052;-78
2021/09/06 12:28:28;;;;;;;2.15;1.58;;;36.40;31.10;;;;;;4994619;28;20101;-78
2021/09/06 12:31:04;;;;;;;1.48;1.20;;;36.40;29.50;;;;;;4990781;28;20125;-78
2021/09/06 12:33:30;;;;;;;1.60;1.50;;;36.50;29.80;;;;;;4990658;28;20038;-77
2021/09/06 12:36:00;;;;;;;1.58;1.40;;;36.50;28.80;;;;;;4992653;28;20022;-78
2021/09/06 12:38:25;;;;;;;1.35;1.25;;;36.60;29.10;;;;;;4992561;28;20045;-77
2021/09/06 12:40:51;;;;;;;2.25;1.50;;;37.20;30.30;;;;;;4990782;28;20018;-78
2021/09/06 12:43:17;;;;;;;1.25;1.15;;;38.20;28.60;;;;;;4992361;28;20035;-77